createdAt,value
2022-12-14T00:00:30.013Z,96.09
2022-12-14T00:01:29.960Z,96.26
2022-12-14T00:02:30.077Z,96.37
2022-12-14T00:03:29.979Z,97.05
2022-12-14T00:04:29.908Z,96.42
2022-12-14T00:05:29.891Z,96.26
2022-12-14T00:06:29.880Z,96.84
2022-12-14T00:07:29.860Z,96.31
2022-12-14T00:08:30.121Z,96.73
2022-12-14T00:09:29.824Z,96.73
2022-12-14T00:10:29.812Z,97.26
2022-12-14T00:11:29.791Z,97.37
2022-12-14T00:12:29.777Z,97.43
2022-12-14T00:13:29.761Z,97.43
2022-12-14T00:14:29.742Z,97.58
2022-12-14T00:15:29.775Z,97.53
2022-12-14T00:16:29.706Z,97.75
2022-12-14T00:17:29.696Z,97.53
2022-12-14T00:18:30.025Z,97.64
2022-12-14T00:19:29.657Z,97.53
2022-12-14T00:20:29.643Z,97.01
2022-12-14T00:21:29.632Z,97.33
2022-12-14T00:22:29.616Z,97.01
2022-12-14T00:23:32.077Z,97.11
2022-12-14T00:24:29.576Z,97.01
2022-12-14T00:25:29.556Z,96.94
2022-12-14T00:26:29.544Z,96.80
2022-12-14T00:27:29.527Z,96.90
2022-12-14T00:28:29.834Z,96.84
2022-12-14T00:29:29.667Z,96.20
2022-12-14T00:30:29.477Z,96.62
2022-12-14T00:31:29.535Z,96.52
2022-12-14T00:32:29.440Z,96.62
2022-12-14T00:33:29.423Z,95.99
2022-12-14T00:34:29.407Z,96.62
2022-12-14T00:35:29.397Z,96.09
2022-12-14T00:36:29.376Z,96.20
2022-12-14T00:37:29.361Z,96.84
2022-12-14T00:38:29.632Z,96.94
2022-12-14T00:39:29.325Z,97.20
2022-12-14T00:40:29.309Z,97.05
2022-12-14T00:41:29.305Z,97.58
2022-12-14T00:42:29.276Z,97.47
2022-12-14T00:43:29.259Z,97.26
2022-12-14T00:44:29.239Z,97.69
2022-12-14T00:45:29.222Z,97.69
2022-12-14T00:46:29.274Z,97.58
2022-12-14T00:47:29.192Z,97.58
2022-12-14T00:48:29.580Z,97.69
2022-12-14T00:49:29.161Z,97.37
2022-12-14T00:50:29.148Z,97.16
2022-12-14T00:51:29.142Z,97.47
2022-12-14T00:52:29.130Z,97.58
2022-12-14T00:53:29.092Z,97.37
2022-12-14T00:54:29.074Z,97.58
2022-12-14T00:55:29.063Z,97.05
2022-12-14T00:56:29.041Z,97.37
2022-12-14T00:57:29.024Z,97.05
2022-12-14T00:58:29.621Z,96.84
2022-12-14T00:59:28.992Z,97.47
2022-12-14T01:00:28.968Z,97.05
2022-12-14T01:01:29.044Z,97.79
2022-12-14T01:02:29.072Z,98.00
2022-12-14T01:03:29.566Z,97.79
2022-12-14T01:04:28.903Z,97.90
2022-12-14T01:05:28.890Z,98.00
2022-12-14T01:06:28.873Z,98.07
2022-12-14T01:07:28.857Z,98.22
2022-12-14T01:08:28.836Z,98.00
2022-12-14T01:09:28.829Z,98.07
2022-12-14T01:10:28.850Z,97.96
2022-12-14T01:11:28.784Z,97.85
2022-12-14T01:12:28.778Z,97.96
2022-12-14T01:13:29.232Z,97.96
2022-12-14T01:14:28.740Z,97.96
2022-12-14T01:15:28.779Z,97.75
2022-12-14T01:16:28.790Z,97.33
2022-12-14T01:17:28.688Z,97.53
2022-12-14T01:18:28.670Z,97.49
2022-12-14T01:19:28.654Z,97.28
2022-12-14T01:20:28.637Z,97.49
2022-12-14T01:21:28.620Z,97.39
2022-12-14T01:22:28.605Z,97.53
2022-12-14T01:23:29.124Z,97.43
2022-12-14T01:24:28.577Z,97.49
2022-12-14T01:25:28.553Z,96.80
2022-12-14T01:26:28.546Z,97.28
2022-12-14T01:27:28.523Z,96.75
2022-12-14T01:28:28.501Z,97.01
2022-12-14T01:29:28.486Z,97.17
2022-12-14T01:30:28.469Z,97.22
2022-12-14T01:31:28.530Z,97.07
2022-12-14T01:32:28.437Z,96.86
2022-12-14T01:33:28.860Z,96.90
2022-12-14T01:34:28.404Z,96.86
2022-12-14T01:35:28.387Z,96.75
2022-12-14T01:36:28.367Z,97.07
2022-12-14T01:37:28.352Z,97.17
2022-12-14T01:38:28.337Z,97.07
2022-12-14T01:39:28.321Z,96.86
2022-12-14T01:40:28.300Z,96.54
2022-12-14T01:41:28.285Z,95.90
2022-12-14T01:42:28.271Z,96.12
2022-12-14T01:43:28.828Z,95.90
2022-12-14T01:44:28.233Z,96.33
2022-12-14T01:45:28.218Z,96.54
2022-12-14T01:46:28.248Z,96.54
2022-12-14T01:47:28.185Z,96.44
2022-12-14T01:48:28.169Z,96.75
2022-12-14T01:49:28.150Z,96.64
2022-12-14T01:50:28.135Z,96.64
2022-12-14T01:51:28.119Z,96.64
2022-12-14T01:52:28.099Z,96.54
2022-12-14T01:53:28.639Z,96.44
2022-12-14T01:54:28.066Z,96.54
2022-12-14T01:55:28.050Z,96.75
2022-12-14T01:56:28.034Z,96.26
2022-12-14T01:57:28.023Z,96.54
2022-12-14T01:58:27.999Z,96.37
2022-12-14T01:59:27.980Z,96.54
2022-12-14T02:00:27.976Z,96.75
2022-12-14T02:01:28.073Z,96.75
2022-12-14T02:02:28.086Z,96.54
2022-12-14T02:03:28.447Z,96.58
2022-12-14T02:04:27.898Z,96.75
2022-12-14T02:05:27.883Z,96.69
2022-12-14T02:06:27.869Z,96.26
2022-12-14T02:07:27.882Z,96.48
2022-12-14T02:08:27.830Z,96.58
2022-12-14T02:09:27.815Z,96.58
2022-12-14T02:10:27.800Z,96.48
2022-12-14T02:11:27.784Z,96.48
2022-12-14T02:12:27.765Z,96.80
2022-12-14T02:13:28.146Z,96.58
2022-12-14T02:14:27.734Z,96.58
2022-12-14T02:15:27.717Z,96.58
2022-12-14T02:16:27.743Z,96.69
2022-12-14T02:17:27.697Z,96.37
2022-12-14T02:18:27.667Z,95.78
2022-12-14T02:19:27.649Z,96.26
2022-12-14T02:20:27.631Z,96.42
2022-12-14T02:21:27.612Z,96.31
2022-12-14T02:22:27.603Z,95.78
2022-12-14T02:23:27.839Z,95.99
2022-12-14T02:24:27.559Z,96.84
2022-12-14T02:25:27.548Z,96.62
2022-12-14T02:26:27.530Z,96.62
2022-12-14T02:27:27.548Z,96.67
2022-12-14T02:28:27.501Z,96.67
2022-12-14T02:29:27.482Z,96.78
2022-12-14T02:30:27.463Z,96.78
2022-12-14T02:31:27.464Z,96.25
2022-12-14T02:32:27.451Z,96.98
2022-12-14T02:33:27.800Z,97.05
2022-12-14T02:34:27.394Z,97.37
2022-12-14T02:35:27.379Z,97.52
2022-12-14T02:36:27.363Z,97.37
2022-12-14T02:37:27.342Z,97.20
2022-12-14T02:38:27.336Z,96.67
2022-12-14T02:39:27.316Z,96.98
2022-12-14T02:40:27.296Z,96.88
2022-12-14T02:41:27.278Z,96.94
2022-12-14T02:42:27.268Z,96.98
2022-12-14T02:43:27.727Z,97.09
2022-12-14T02:44:27.230Z,97.20
2022-12-14T02:45:27.253Z,97.05
2022-12-14T02:46:27.260Z,97.16
2022-12-14T02:47:27.179Z,97.09
2022-12-14T02:48:27.156Z,97.09
2022-12-14T02:49:27.144Z,97.63
2022-12-14T02:50:27.129Z,97.09
2022-12-14T02:51:27.110Z,96.88
2022-12-14T02:52:27.091Z,97.31
2022-12-14T02:53:27.435Z,97.31
2022-12-14T02:54:27.068Z,97.09
2022-12-14T02:55:27.046Z,97.09
2022-12-14T02:56:27.024Z,96.88
2022-12-14T02:57:27.009Z,97.63
2022-12-14T02:58:27.007Z,97.63
2022-12-14T02:59:26.973Z,97.63
2022-12-14T03:00:26.989Z,97.69
2022-12-14T03:01:27.076Z,97.63
2022-12-14T03:02:26.995Z,97.09
2022-12-14T03:03:27.323Z,97.09
2022-12-14T03:04:26.890Z,96.46
2022-12-14T03:05:26.874Z,96.03
2022-12-14T03:06:26.858Z,96.46
2022-12-14T03:07:26.839Z,96.67
2022-12-14T03:08:26.821Z,96.25
2022-12-14T03:09:26.808Z,96.56
2022-12-14T03:10:26.788Z,96.84
2022-12-14T03:11:26.776Z,96.98
2022-12-14T03:12:26.757Z,97.24
2022-12-14T03:13:27.097Z,97.03
2022-12-14T03:14:26.726Z,96.92
2022-12-14T03:15:26.728Z,96.92
2022-12-14T03:16:26.735Z,96.88
2022-12-14T03:17:26.674Z,96.67
2022-12-14T03:18:26.656Z,97.03
2022-12-14T03:19:26.643Z,96.92
2022-12-14T03:20:26.625Z,97.31
2022-12-14T03:21:26.605Z,97.67
2022-12-14T03:22:26.641Z,97.67
2022-12-14T03:23:26.979Z,97.41
2022-12-14T03:24:26.557Z,97.52
2022-12-14T03:25:26.537Z,97.56
2022-12-14T03:26:26.522Z,97.35
2022-12-14T03:27:26.508Z,97.20
2022-12-14T03:28:26.493Z,96.98
2022-12-14T03:29:26.469Z,97.09
2022-12-14T03:30:58.392Z,96.67
2022-12-14T03:31:26.511Z,97.20
2022-12-14T03:32:26.418Z,97.09
2022-12-14T03:33:26.756Z,97.73
2022-12-14T03:34:26.390Z,97.73
2022-12-14T03:35:26.372Z,97.20
2022-12-14T03:36:26.353Z,97.24
2022-12-14T03:37:26.334Z,96.88
2022-12-14T03:38:26.316Z,96.67
2022-12-14T03:39:26.301Z,96.67
2022-12-14T03:40:26.283Z,96.82
2022-12-14T03:41:26.267Z,96.98
2022-12-14T03:42:26.249Z,96.61
2022-12-14T03:43:26.619Z,96.56
2022-12-14T03:44:26.217Z,96.56
2022-12-14T03:45:26.240Z,96.35
2022-12-14T03:46:26.183Z,96.56
2022-12-14T03:47:26.167Z,96.56
2022-12-14T03:48:26.147Z,96.98
2022-12-14T03:49:26.129Z,96.14
2022-12-14T03:50:26.116Z,96.78
2022-12-14T03:51:26.098Z,96.78
2022-12-14T03:52:26.081Z,96.67
2022-12-14T03:53:26.472Z,96.14
2022-12-14T03:54:26.049Z,96.78
2022-12-14T03:55:26.031Z,96.92
2022-12-14T03:56:26.014Z,96.88
2022-12-14T03:57:25.997Z,96.82
2022-12-14T03:58:25.994Z,96.67
2022-12-14T03:59:25.960Z,96.78
2022-12-14T04:00:25.951Z,96.78
2022-12-14T04:01:26.211Z,96.88
2022-12-14T04:02:26.019Z,96.78
2022-12-14T04:03:26.206Z,96.39
2022-12-14T04:04:25.877Z,95.82
2022-12-14T04:05:25.857Z,96.35
2022-12-14T04:06:26.577Z,96.35
2022-12-14T04:07:25.830Z,96.03
2022-12-14T04:08:25.811Z,96.56
2022-12-14T04:09:25.792Z,96.46
2022-12-14T04:10:25.776Z,96.61
2022-12-14T04:11:25.759Z,96.35
2022-12-14T04:12:25.744Z,96.46
2022-12-14T04:13:26.182Z,96.08
2022-12-14T04:14:25.707Z,96.25
2022-12-14T04:15:25.689Z,96.35
2022-12-14T04:16:25.715Z,96.19
2022-12-14T04:17:25.654Z,96.25
2022-12-14T04:18:25.640Z,95.82
2022-12-14T04:19:25.621Z,96.29
2022-12-14T04:20:25.608Z,95.93
2022-12-14T04:21:25.616Z,95.93
2022-12-14T04:22:25.573Z,95.82
2022-12-14T04:23:25.917Z,95.82
2022-12-14T04:24:25.533Z,95.76
2022-12-14T04:25:25.524Z,95.54
2022-12-14T04:26:25.522Z,95.87
2022-12-14T04:27:25.487Z,95.76
2022-12-14T04:28:25.468Z,95.34
2022-12-14T04:29:25.451Z,95.91
2022-12-14T04:30:25.435Z,96.33
2022-12-14T04:31:25.479Z,96.29
2022-12-14T04:32:25.423Z,96.61
2022-12-14T04:33:25.736Z,96.76
2022-12-14T04:34:25.369Z,96.61
2022-12-14T04:35:25.351Z,96.76
2022-12-14T04:36:25.335Z,96.97
2022-12-14T04:37:25.324Z,96.72
2022-12-14T04:38:25.300Z,96.92
2022-12-14T04:39:25.284Z,96.86
2022-12-14T04:40:25.262Z,96.97
2022-12-14T04:41:25.248Z,96.29
2022-12-14T04:42:25.233Z,96.86
2022-12-14T04:43:25.493Z,96.97
2022-12-14T04:44:25.217Z,96.44
2022-12-14T04:45:25.179Z,96.44
2022-12-14T04:46:25.167Z,96.65
2022-12-14T04:47:25.147Z,96.76
2022-12-14T04:48:25.131Z,96.76
2022-12-14T04:49:25.112Z,96.86
2022-12-14T04:50:25.092Z,96.86
2022-12-14T04:51:25.078Z,96.65
2022-12-14T04:52:25.062Z,96.86
2022-12-14T04:53:25.504Z,96.76
2022-12-14T04:54:25.027Z,96.44
2022-12-14T04:55:25.005Z,96.97
2022-12-14T04:56:24.987Z,97.18
2022-12-14T04:57:25.203Z,97.54
2022-12-14T04:58:24.956Z,97.50
2022-12-14T04:59:24.942Z,97.65
2022-12-14T05:00:24.923Z,97.71
2022-12-14T05:01:24.992Z,97.39
2022-12-14T05:02:24.962Z,97.75
2022-12-14T05:03:25.183Z,97.86
2022-12-14T05:04:24.857Z,97.75
2022-12-14T05:05:24.842Z,97.75
2022-12-14T05:06:24.821Z,97.61
2022-12-14T05:07:24.808Z,97.86
2022-12-14T05:08:24.786Z,97.71
2022-12-14T05:09:24.771Z,97.81
2022-12-14T05:10:24.748Z,97.61
2022-12-14T05:11:53.255Z,97.61
2022-12-14T05:12:24.715Z,97.81
2022-12-14T05:13:24.922Z,97.81
2022-12-14T05:14:24.682Z,97.81
2022-12-14T05:15:24.668Z,97.81
2022-12-14T05:16:24.709Z,97.81
2022-12-14T05:17:24.635Z,97.81
2022-12-14T05:18:24.613Z,97.71
2022-12-14T05:19:24.600Z,97.81
2022-12-14T05:20:24.585Z,97.81
2022-12-14T05:21:24.588Z,97.71
2022-12-14T05:22:24.548Z,97.61
2022-12-14T05:23:24.915Z,97.61
2022-12-14T05:24:24.513Z,97.71
2022-12-14T05:25:24.498Z,97.61
2022-12-14T05:26:24.478Z,97.71
2022-12-14T05:27:24.457Z,97.71
2022-12-14T05:28:24.443Z,97.71
2022-12-14T05:29:24.429Z,97.71
2022-12-14T05:30:24.474Z,96.97
2022-12-14T05:31:24.394Z,97.50
2022-12-14T05:32:24.378Z,97.18
2022-12-14T05:33:24.479Z,97.29
2022-12-14T05:34:24.356Z,97.39
2022-12-14T05:35:24.326Z,97.29
2022-12-14T05:36:24.306Z,97.14
2022-12-14T05:37:24.290Z,96.97
2022-12-14T05:38:24.273Z,96.97
2022-12-14T05:39:24.263Z,97.08
2022-12-14T05:40:24.237Z,96.86
2022-12-14T05:41:24.221Z,96.55
2022-12-14T05:42:24.210Z,96.55
2022-12-14T05:43:24.329Z,96.55
2022-12-14T05:44:24.170Z,96.76
2022-12-14T05:45:24.152Z,96.33
2022-12-14T05:46:24.198Z,96.76
2022-12-14T05:47:24.119Z,96.86
2022-12-14T05:48:24.099Z,96.86
2022-12-14T05:49:24.086Z,96.97
2022-12-14T05:50:24.069Z,96.97
2022-12-14T05:51:24.048Z,96.86
2022-12-14T05:52:24.033Z,96.76
2022-12-14T05:53:24.191Z,96.97
2022-12-14T05:54:23.999Z,96.97
2022-12-14T05:55:23.981Z,96.76
2022-12-14T05:56:23.963Z,96.86
2022-12-14T05:57:23.949Z,96.86
2022-12-14T05:58:23.927Z,96.86
2022-12-14T05:59:23.913Z,96.86
2022-12-14T06:00:23.893Z,96.97
2022-12-14T06:01:23.942Z,96.91
2022-12-14T06:02:23.946Z,96.97
2022-12-14T06:03:23.851Z,96.91
2022-12-14T06:04:23.884Z,96.80
2022-12-14T06:05:23.821Z,96.91
2022-12-14T06:06:23.793Z,97.02
2022-12-14T06:07:27.831Z,97.02
2022-12-14T06:08:23.783Z,96.59
2022-12-14T06:09:23.753Z,97.02
2022-12-14T06:10:23.723Z,96.80
2022-12-14T06:11:23.707Z,96.37
2022-12-14T06:12:23.688Z,96.27
2022-12-14T06:13:23.683Z,96.37
2022-12-14T06:14:23.660Z,96.37
2022-12-14T06:15:23.639Z,96.80
2022-12-14T06:16:23.693Z,96.80
2022-12-14T06:17:23.601Z,96.59
2022-12-14T06:18:23.588Z,96.84
2022-12-14T06:19:23.573Z,96.95
2022-12-14T06:20:23.554Z,96.95
2022-12-14T06:21:23.543Z,96.95
2022-12-14T06:22:23.520Z,96.95
2022-12-14T06:23:23.509Z,96.84
2022-12-14T06:24:23.497Z,96.59
2022-12-14T06:25:23.468Z,96.95
2022-12-14T06:26:23.444Z,97.27
2022-12-14T06:27:23.427Z,97.38
2022-12-14T06:28:23.415Z,97.48
2022-12-14T06:29:23.401Z,97.54
2022-12-14T06:30:23.376Z,97.54
2022-12-14T06:31:23.389Z,97.54
2022-12-14T06:32:23.368Z,97.48
2022-12-14T06:33:23.344Z,97.16
2022-12-14T06:34:28.153Z,97.48
2022-12-14T06:35:23.296Z,97.59
2022-12-14T06:36:23.273Z,97.16
2022-12-14T06:37:23.258Z,96.80
2022-12-14T06:38:23.260Z,97.12
2022-12-14T06:39:23.225Z,97.02
2022-12-14T06:40:23.201Z,96.63
2022-12-14T06:41:23.192Z,96.37
2022-12-14T06:42:23.174Z,96.53
2022-12-14T06:43:23.154Z,96.84
2022-12-14T06:44:23.133Z,96.73
2022-12-14T06:45:23.120Z,96.84
2022-12-14T06:46:23.154Z,97.06
2022-12-14T06:47:23.085Z,97.48
2022-12-14T06:48:23.068Z,97.48
2022-12-14T06:49:23.043Z,97.69
2022-12-14T06:50:23.042Z,97.80
2022-12-14T06:51:23.021Z,97.80
2022-12-14T06:52:26.702Z,97.75
2022-12-14T06:53:22.978Z,97.80
2022-12-14T06:54:22.962Z,97.80
2022-12-14T06:55:22.953Z,97.75
2022-12-14T06:56:22.929Z,97.65
2022-12-14T06:57:22.911Z,97.75
2022-12-14T06:58:24.858Z,97.33
2022-12-14T06:59:22.892Z,97.22
2022-12-14T07:00:22.862Z,96.80
2022-12-14T07:01:22.950Z,96.48
2022-12-14T07:02:23.020Z,96.42
2022-12-14T07:03:22.837Z,96.37
2022-12-14T07:04:22.793Z,96.31
2022-12-14T07:05:22.772Z,96.48
2022-12-14T07:06:22.759Z,96.37
2022-12-14T07:07:22.736Z,96.42
2022-12-14T07:08:22.721Z,96.42
2022-12-14T07:09:22.703Z,96.20
2022-12-14T07:10:22.686Z,96.42
2022-12-14T07:11:22.668Z,96.84
2022-12-14T07:12:22.675Z,96.84
2022-12-14T07:13:22.629Z,96.53
2022-12-14T07:14:22.619Z,96.46
2022-12-14T07:15:22.599Z,96.42
2022-12-14T07:16:22.655Z,96.20
2022-12-14T07:17:22.573Z,97.16
2022-12-14T07:18:22.548Z,97.48
2022-12-14T07:19:22.540Z,97.42
2022-12-14T07:20:22.515Z,97.42
2022-12-14T07:21:22.496Z,97.52
2022-12-14T07:22:22.482Z,97.48
2022-12-14T07:23:27.717Z,97.06
2022-12-14T07:24:22.447Z,97.80
2022-12-14T07:25:22.436Z,97.80
2022-12-14T07:26:22.411Z,98.01
2022-12-14T07:27:22.395Z,97.69
2022-12-14T07:28:22.375Z,98.33
2022-12-14T07:29:22.356Z,98.44
2022-12-14T07:30:22.344Z,98.33
2022-12-14T07:31:22.365Z,97.59
2022-12-14T07:32:22.306Z,97.75
2022-12-14T07:33:22.286Z,97.91
2022-12-14T07:34:22.274Z,97.69
2022-12-14T07:35:22.259Z,97.69
2022-12-14T07:36:22.233Z,97.80
2022-12-14T07:37:22.230Z,97.69
2022-12-14T07:38:22.202Z,97.75
2022-12-14T07:39:22.187Z,97.59
2022-12-14T07:40:22.169Z,97.80
2022-12-14T07:41:23.246Z,97.65
2022-12-14T07:42:22.133Z,97.48
2022-12-14T07:43:22.155Z,97.69
2022-12-14T07:44:22.096Z,97.69
2022-12-14T07:45:22.077Z,97.59
2022-12-14T07:46:22.138Z,97.27
2022-12-14T07:47:22.045Z,97.38
2022-12-14T07:48:22.030Z,97.22
2022-12-14T07:49:22.025Z,97.65
2022-12-14T07:50:21.999Z,97.65
2022-12-14T07:51:21.982Z,97.65
2022-12-14T07:52:21.955Z,97.75
2022-12-14T07:53:21.941Z,97.75
2022-12-14T07:54:21.922Z,97.65
2022-12-14T07:55:21.908Z,97.02
2022-12-14T07:56:21.889Z,97.33
2022-12-14T07:57:21.869Z,97.12
2022-12-14T07:58:21.853Z,97.02
2022-12-14T07:59:21.847Z,96.69
2022-12-14T08:00:21.820Z,96.37
2022-12-14T08:01:21.841Z,96.80
2022-12-14T08:02:21.854Z,96.86
2022-12-14T08:03:21.769Z,96.91
2022-12-14T08:04:21.792Z,97.08
2022-12-14T08:05:21.732Z,96.55
2022-12-14T08:06:21.714Z,96.76
2022-12-14T08:07:21.700Z,96.76
2022-12-14T08:08:21.680Z,96.44
2022-12-14T08:09:21.668Z,96.12
2022-12-14T08:10:21.646Z,96.23
2022-12-14T08:11:21.629Z,96.44
2022-12-14T08:12:21.609Z,96.44
2022-12-14T08:13:21.593Z,96.61
2022-12-14T08:14:21.583Z,96.33
2022-12-14T08:15:21.561Z,96.08
2022-12-14T08:16:21.589Z,96.61
2022-12-14T08:17:21.522Z,96.39
2022-12-14T08:18:21.510Z,96.61
2022-12-14T08:19:21.494Z,96.08
2022-12-14T08:20:21.475Z,96.39
2022-12-14T08:21:21.455Z,96.50
2022-12-14T08:22:21.444Z,95.97
2022-12-14T08:23:21.423Z,96.39
2022-12-14T08:24:21.401Z,96.29
2022-12-14T08:25:21.384Z,96.08
2022-12-14T08:26:21.366Z,96.19
2022-12-14T08:27:21.352Z,96.29
2022-12-14T08:28:21.331Z,95.76
2022-12-14T08:29:21.328Z,96.08
2022-12-14T08:30:21.295Z,96.35
2022-12-14T08:31:21.323Z,96.14
2022-12-14T08:32:21.261Z,95.93
2022-12-14T08:33:21.299Z,96.50
2022-12-14T08:34:21.226Z,96.29
2022-12-14T08:35:21.213Z,96.25
2022-12-14T08:36:21.218Z,95.82
2022-12-14T08:37:21.173Z,95.61
2022-12-14T08:38:21.159Z,95.61
2022-12-14T08:39:21.146Z,95.67
2022-12-14T08:40:21.127Z,94.82
2022-12-14T08:41:21.104Z,95.14
2022-12-14T08:42:21.094Z,95.14
2022-12-14T08:43:24.974Z,95.14
2022-12-14T08:44:21.057Z,94.82
2022-12-14T08:45:21.041Z,95.04
2022-12-14T08:46:21.045Z,95.25
2022-12-14T08:47:21.005Z,95.46
2022-12-14T08:48:20.997Z,94.93
2022-12-14T08:49:20.961Z,94.93
2022-12-14T08:50:20.950Z,94.78
2022-12-14T08:51:20.933Z,95.21
2022-12-14T08:52:20.911Z,94.78
2022-12-14T08:53:20.897Z,95.53
2022-12-14T08:54:20.880Z,95.00
2022-12-14T08:55:25.728Z,94.68
2022-12-14T08:56:20.846Z,95.06
2022-12-14T08:57:20.829Z,94.95
2022-12-14T08:58:20.813Z,94.74
2022-12-14T08:59:51.965Z,94.95
2022-12-14T09:00:20.777Z,94.42
2022-12-14T09:01:20.891Z,94.10
2022-12-14T09:02:20.898Z,94.42
2022-12-14T09:03:20.774Z,94.32
2022-12-14T09:04:20.706Z,94.10
2022-12-14T09:05:20.695Z,93.74
2022-12-14T09:06:20.680Z,93.85
2022-12-14T09:07:20.669Z,93.85
2022-12-14T09:08:20.638Z,93.74
2022-12-14T09:09:20.622Z,92.75
2022-12-14T09:10:20.614Z,92.86
2022-12-14T09:11:20.590Z,92.75
2022-12-14T09:12:20.600Z,92.82
2022-12-14T09:13:20.570Z,92.71
2022-12-14T09:14:20.538Z,92.18
2022-12-14T09:15:20.522Z,92.18
2022-12-14T09:16:20.607Z,91.97
2022-12-14T09:17:20.487Z,91.65
2022-12-14T09:18:20.471Z,91.65
2022-12-14T09:19:20.454Z,91.50
2022-12-14T09:20:20.453Z,91.55
2022-12-14T09:21:20.417Z,91.65
2022-12-14T09:22:21.558Z,91.76
2022-12-14T09:23:20.386Z,92.03
2022-12-14T09:24:20.369Z,91.93
2022-12-14T09:25:20.352Z,91.40
2022-12-14T09:26:20.338Z,91.40
2022-12-14T09:27:20.384Z,91.30
2022-12-14T09:28:20.300Z,91.30
2022-12-14T09:29:20.285Z,91.55
2022-12-14T09:30:26.200Z,91.40
2022-12-14T09:31:20.281Z,91.40
2022-12-14T09:32:20.394Z,91.40
2022-12-14T09:33:20.214Z,91.40
2022-12-14T09:34:20.201Z,91.50
2022-12-14T09:35:20.188Z,91.40
2022-12-14T09:36:20.167Z,91.40
2022-12-14T09:37:20.293Z,91.40
2022-12-14T09:38:20.134Z,90.72
2022-12-14T09:39:20.118Z,90.77
2022-12-14T09:40:20.171Z,91.25
2022-12-14T09:41:20.085Z,91.14
2022-12-14T09:42:20.116Z,90.30
2022-12-14T09:43:20.118Z,91.04
2022-12-14T09:44:20.032Z,91.04
2022-12-14T09:45:20.017Z,90.94
2022-12-14T09:46:20.056Z,91.04
2022-12-14T09:47:19.981Z,90.83
2022-12-14T09:48:19.966Z,90.83
2022-12-14T09:49:19.950Z,91.04
2022-12-14T09:50:20.051Z,90.94
2022-12-14T09:51:19.968Z,90.83
2022-12-14T09:52:19.898Z,90.62
2022-12-14T09:53:19.881Z,90.94
2022-12-14T09:54:19.869Z,91.46
2022-12-14T09:55:19.852Z,91.36
2022-12-14T09:56:19.841Z,91.31
2022-12-14T09:57:19.816Z,91.53
2022-12-14T09:58:19.801Z,90.37
2022-12-14T09:59:19.782Z,90.89
2022-12-14T10:00:19.884Z,90.47
2022-12-14T10:01:19.826Z,90.37
2022-12-14T10:02:30.950Z,90.37
2022-12-14T10:03:19.865Z,89.94
2022-12-14T10:04:19.756Z,89.42
2022-12-14T10:05:19.685Z,89.20
2022-12-14T10:06:19.667Z,89.31
2022-12-14T10:07:19.651Z,89.52
2022-12-14T10:08:19.630Z,89.52
2022-12-14T10:09:19.623Z,89.42
2022-12-14T10:10:19.607Z,89.31
2022-12-14T10:11:19.584Z,89.59
2022-12-14T10:12:19.570Z,89.31
2022-12-14T10:13:19.549Z,88.78
2022-12-14T10:14:19.537Z,89.37
2022-12-14T10:15:19.523Z,88.64
2022-12-14T10:16:19.551Z,88.53
2022-12-14T10:17:19.486Z,87.58
2022-12-14T10:18:41.380Z,87.48
2022-12-14T10:19:19.453Z,87.48
2022-12-14T10:20:19.436Z,87.76
2022-12-14T10:21:19.423Z,87.54
2022-12-14T10:22:19.415Z,87.96
2022-12-14T10:23:22.793Z,87.44
2022-12-14T10:24:19.373Z,87.54
2022-12-14T10:25:19.357Z,87.54
2022-12-14T10:26:19.336Z,87.76
2022-12-14T10:27:19.322Z,87.86
2022-12-14T10:28:19.303Z,87.65
2022-12-14T10:29:19.315Z,87.54
2022-12-14T10:30:19.276Z,87.61
2022-12-14T10:31:19.289Z,87.29
2022-12-14T10:32:19.240Z,87.40
2022-12-14T10:33:19.221Z,87.33
2022-12-14T10:34:19.210Z,86.98
2022-12-14T10:35:19.197Z,86.98
2022-12-14T10:36:19.174Z,86.66
2022-12-14T10:37:19.156Z,87.29
2022-12-14T10:38:19.143Z,86.24
2022-12-14T10:39:19.124Z,86.55
2022-12-14T10:40:29.150Z,86.24
2022-12-14T10:41:19.092Z,85.39
2022-12-14T10:42:19.073Z,85.61
2022-12-14T10:43:19.072Z,85.61
2022-12-14T10:44:19.042Z,86.13
2022-12-14T10:45:42.998Z,85.39
2022-12-14T10:46:19.101Z,85.82
2022-12-14T10:47:19.508Z,85.50
2022-12-14T10:48:18.977Z,86.34
2022-12-14T10:49:18.963Z,85.71
2022-12-14T10:50:18.945Z,85.61
2022-12-14T10:51:18.926Z,85.99
2022-12-14T10:52:18.909Z,86.41
2022-12-14T10:53:18.893Z,86.10
2022-12-14T10:54:18.878Z,86.20
2022-12-14T10:55:18.860Z,85.99
2022-12-14T10:56:18.974Z,86.30
2022-12-14T10:57:18.831Z,86.20
2022-12-14T10:58:18.807Z,86.05
2022-12-14T10:59:18.796Z,86.30
2022-12-14T11:00:24.121Z,84.89
2022-12-14T11:01:18.919Z,84.37
2022-12-14T11:02:18.966Z,83.84
2022-12-14T11:03:18.785Z,84.37
2022-12-14T11:04:18.712Z,85.31
2022-12-14T11:05:18.699Z,84.86
2022-12-14T11:06:18.681Z,85.60
2022-12-14T11:07:18.663Z,84.01
2022-12-14T11:08:18.648Z,82.75
2022-12-14T11:09:18.628Z,82.86
2022-12-14T11:10:18.629Z,82.23
2022-12-14T11:11:19.528Z,82.23
2022-12-14T11:12:18.678Z,82.97
2022-12-14T11:13:18.562Z,82.97
2022-12-14T11:14:18.548Z,82.75
2022-12-14T11:15:18.532Z,82.75
2022-12-14T11:16:18.643Z,83.17
2022-12-14T11:17:18.657Z,82.86
2022-12-14T11:18:18.521Z,82.65
2022-12-14T11:19:18.470Z,82.65
2022-12-14T11:20:18.455Z,82.86
2022-12-14T11:21:18.430Z,82.75
2022-12-14T11:22:22.206Z,82.65
2022-12-14T11:23:18.403Z,82.97
2022-12-14T11:24:18.387Z,83.07
2022-12-14T11:25:18.369Z,82.97
2022-12-14T11:26:18.357Z,82.97
2022-12-14T11:27:18.341Z,83.28
2022-12-14T11:28:18.319Z,83.03
2022-12-14T11:29:18.303Z,83.81
2022-12-14T11:30:18.286Z,83.07
2022-12-14T11:31:18.308Z,83.70
2022-12-14T11:32:18.256Z,83.81
2022-12-14T11:33:18.236Z,83.87
2022-12-14T11:34:21.975Z,83.81
2022-12-14T11:35:18.208Z,84.50
2022-12-14T11:36:18.195Z,83.98
2022-12-14T11:37:18.230Z,83.66
2022-12-14T11:38:18.158Z,82.97
2022-12-14T11:39:18.141Z,82.65
2022-12-14T11:40:18.125Z,82.65
2022-12-14T11:41:18.107Z,82.86
2022-12-14T11:42:18.131Z,83.14
2022-12-14T11:43:18.075Z,83.28
2022-12-14T11:44:18.058Z,83.59
2022-12-14T11:45:18.043Z,83.76
2022-12-14T11:46:18.076Z,83.45
2022-12-14T11:47:18.011Z,84.01
2022-12-14T11:48:17.994Z,84.12
2022-12-14T11:49:17.977Z,83.81
2022-12-14T11:50:17.961Z,83.34
2022-12-14T11:51:17.947Z,83.49
2022-12-14T11:52:17.930Z,83.76
2022-12-14T11:53:17.915Z,83.45
2022-12-14T11:54:17.899Z,83.76
2022-12-14T11:55:23.043Z,83.24
2022-12-14T11:56:17.870Z,83.24
2022-12-14T11:57:17.845Z,83.45
2022-12-14T11:58:17.833Z,83.66
2022-12-14T11:59:17.813Z,84.25
2022-12-14T12:00:17.801Z,84.40
2022-12-14T12:01:17.836Z,84.29
2022-12-14T12:02:17.917Z,83.87
2022-12-14T12:03:17.811Z,83.98
2022-12-14T12:04:17.736Z,84.29
2022-12-14T12:05:17.718Z,83.98
2022-12-14T12:06:17.703Z,84.19
2022-12-14T12:07:17.687Z,83.76
2022-12-14T12:08:17.670Z,83.76
2022-12-14T12:09:17.658Z,83.14
2022-12-14T12:10:17.640Z,83.66
2022-12-14T12:11:17.626Z,83.45
2022-12-14T12:12:17.611Z,83.87
2022-12-14T12:13:17.592Z,83.34
2022-12-14T12:14:17.627Z,83.34
2022-12-14T12:15:17.562Z,83.14
2022-12-14T12:16:17.580Z,82.92
2022-12-14T12:17:17.533Z,83.66
2022-12-14T12:18:17.510Z,83.34
2022-12-14T12:19:17.496Z,83.14
2022-12-14T12:20:17.481Z,83.24
2022-12-14T12:21:17.466Z,83.56
2022-12-14T12:22:17.449Z,83.76
2022-12-14T12:23:17.434Z,83.76
2022-12-14T12:24:17.418Z,84.19
2022-12-14T12:25:26.782Z,83.87
2022-12-14T12:26:17.385Z,84.19
2022-12-14T12:27:17.368Z,84.50
2022-12-14T12:28:17.351Z,83.98
2022-12-14T12:29:17.338Z,84.29
2022-12-14T12:30:17.322Z,84.29
2022-12-14T12:31:17.353Z,84.29
2022-12-14T12:32:17.290Z,84.44
2022-12-14T12:33:17.273Z,84.71
2022-12-14T12:34:17.265Z,85.03
2022-12-14T12:35:17.246Z,84.44
2022-12-14T12:36:23.368Z,85.24
2022-12-14T12:37:26.241Z,84.71
2022-12-14T12:38:17.193Z,84.71
2022-12-14T12:39:17.179Z,84.92
2022-12-14T12:40:17.163Z,84.82
2022-12-14T12:41:17.163Z,84.96
2022-12-14T12:42:17.129Z,84.82
2022-12-14T12:43:17.112Z,84.50
2022-12-14T12:44:17.098Z,84.29
2022-12-14T12:45:17.088Z,83.76
2022-12-14T12:46:17.122Z,83.87
2022-12-14T12:47:29.030Z,84.19
2022-12-14T12:48:17.035Z,84.19
2022-12-14T12:49:17.019Z,84.08
2022-12-14T12:50:17.000Z,83.66
2022-12-14T12:51:16.987Z,83.73
2022-12-14T12:52:16.971Z,83.94